createdAt,value
2019-05-30T00:01:00.060Z,11.00
2019-05-30T00:03:37.897Z,10.47
2019-05-30T00:06:12.490Z,12.70
2019-05-30T00:08:47.239Z,12.60
2019-05-30T00:11:20.610Z,12.50
2019-05-30T00:14:18.140Z,14.20
2019-05-30T00:17:33.908Z,10.73
2019-05-30T00:20:29.513Z,14.70
2019-05-30T00:26:58.201Z,8.50
2019-05-30T00:30:22.875Z,11.67
2019-05-30T00:32:58.741Z,10.00
2019-05-30T00:35:45.747Z,7.43
2019-05-30T00:38:47.890Z,11.60
2019-05-30T00:41:57.863Z,10.13
2019-05-30T00:47:52.465Z,10.90
2019-05-30T00:50:29.841Z,12.83
2019-05-30T00:53:47.931Z,9.20
2019-05-30T00:56:28.548Z,10.33
2019-05-30T00:59:58.755Z,10.83
2019-05-30T01:03:20.864Z,10.50
2019-05-30T01:06:44.248Z,9.57
2019-05-30T01:10:07.488Z,12.90
2019-05-30T01:13:22.017Z,19.77
2019-05-30T01:16:55.281Z,194.47
2019-05-30T01:20:05.290Z,335.93
2019-05-30T01:23:19.018Z,336.33
2019-05-30T01:26:16.443Z,155.90
2019-05-30T01:28:49.213Z,11.87
2019-05-30T01:31:22.762Z,44.97
2019-05-30T01:33:59.945Z,82.43
2019-05-30T01:36:37.726Z,28.33
2019-05-30T01:39:10.366Z,173.73
2019-05-30T01:41:42.360Z,71.37
2019-05-30T01:44:13.723Z,13.17
2019-05-30T01:46:44.955Z,246.30
2019-05-30T01:49:16.709Z,107.83
2019-05-30T01:51:48.317Z,472.97
2019-05-30T01:54:23.569Z,200.80
2019-05-30T01:56:58.530Z,137.27
2019-05-30T01:59:29.360Z,15.87
2019-05-30T02:02:02.908Z,24.43
2019-05-30T02:04:35.664Z,14.00
2019-05-30T02:07:07.551Z,20.10
2019-05-30T02:09:43.606Z,22.93
2019-05-30T02:12:15.285Z,13.63
2019-05-30T02:14:48.763Z,124.20
2019-05-30T02:17:20.622Z,15.97
2019-05-30T02:19:52.314Z,10.90
2019-05-30T02:22:24.654Z,283.53
2019-05-30T02:24:57.180Z,10.47
2019-05-30T02:27:29.379Z,98.33
2019-05-30T02:30:03.969Z,340.27
2019-05-30T02:32:37.258Z,558.80
2019-05-30T02:35:12.580Z,250.27
2019-05-30T02:37:43.887Z,241.40
2019-05-30T02:40:18.031Z,189.63
2019-05-30T02:42:51.636Z,607.50
2019-05-30T02:45:25.093Z,247.87
2019-05-30T02:47:56.996Z,29.47
2019-05-30T02:50:29.031Z,67.60
2019-05-30T02:53:03.523Z,35.60
2019-05-30T02:55:36.899Z,28.87
2019-05-30T02:58:10.441Z,126.10
2019-05-30T03:00:42.489Z,114.50
2019-05-30T03:03:15.008Z,76.83
2019-05-30T03:05:47.079Z,1102.03
2019-05-30T03:08:19.440Z,1844.57
2019-05-30T03:10:51.698Z,1179.37
2019-05-30T03:13:25.954Z,1497.87
2019-05-30T03:16:02.068Z,1588.97
2019-05-30T03:18:35.758Z,1038.90
2019-05-30T03:21:12.396Z,1153.50
2019-05-30T03:23:43.369Z,1347.57
2019-05-30T03:26:16.199Z,824.63
2019-05-30T03:28:48.122Z,1119.20
2019-05-30T03:31:28.687Z,1612.67
2019-05-30T03:34:08.805Z,1272.33
2019-05-30T03:36:39.210Z,1167.13
2019-05-30T03:39:13.093Z,734.07
2019-05-30T03:41:46.488Z,923.00
2019-05-30T03:44:19.455Z,1063.97
2019-05-30T03:46:55.354Z,438.93
2019-05-30T03:49:31.547Z,579.97
2019-05-30T03:52:10.665Z,799.47
2019-05-30T03:54:43.008Z,452.30
2019-05-30T03:57:33.034Z,123.13
2019-05-30T04:00:24.478Z,308.83
2019-05-30T04:03:09.395Z,346.63
2019-05-30T04:05:53.493Z,495.53
2019-05-30T04:08:27.891Z,244.17
2019-05-30T04:11:03.733Z,478.33
2019-05-30T04:13:42.478Z,473.13
2019-05-30T04:16:36.233Z,90.13
2019-05-30T04:19:12.351Z,498.67
2019-05-30T04:21:46.045Z,623.30
2019-05-30T04:24:19.598Z,67.43
2019-05-30T04:26:51.895Z,24.73
2019-05-30T04:29:24.019Z,946.07
2019-05-30T04:31:58.247Z,1677.43
2019-05-30T04:34:30.340Z,1128.57
2019-05-30T04:37:03.599Z,425.10
2019-05-30T04:39:36.773Z,257.97
2019-05-30T04:42:11.364Z,212.93
2019-05-30T04:44:43.933Z,489.30
2019-05-30T04:47:18.288Z,25.67
2019-05-30T04:49:50.366Z,19.20
2019-05-30T04:52:26.056Z,85.37
2019-05-30T04:54:58.914Z,17.50
2019-05-30T04:57:34.202Z,72.37
2019-05-30T05:00:10.807Z,10.43
2019-05-30T05:02:43.396Z,8.37
2019-05-30T05:05:20.926Z,8.97
2019-05-30T05:07:48.649Z,10.03
2019-05-30T05:10:22.341Z,9.07
2019-05-30T05:12:55.483Z,12.57
2019-05-30T05:15:28.567Z,10.17
2019-05-30T05:18:00.361Z,8.27
2019-05-30T05:20:36.068Z,10.50
2019-05-30T05:23:07.000Z,8.47
2019-05-30T05:25:42.253Z,8.47
2019-05-30T05:28:15.657Z,9.53
2019-05-30T05:30:51.516Z,8.07
2019-05-30T05:37:19.474Z,7.83
2019-05-30T05:40:42.504Z,9.03
2019-05-30T05:47:24.651Z,6.17
2019-05-30T05:50:45.710Z,5.80
2019-05-30T05:53:48.688Z,8.37
2019-05-30T05:56:35.680Z,5.00
2019-05-30T06:02:34.209Z,5.60
2019-05-30T06:05:08.662Z,8.73
2019-05-30T06:07:40.333Z,6.93
2019-05-30T06:10:15.216Z,9.80
2019-05-30T06:12:47.192Z,5.30
2019-05-30T06:15:21.173Z,9.50
2019-05-30T06:17:53.619Z,28.23
2019-05-30T06:20:27.362Z,21.77
2019-05-30T06:23:01.069Z,27.87
2019-05-30T06:25:34.298Z,12.53
2019-05-30T06:28:09.563Z,9.00
2019-05-30T06:31:01.578Z,10.00
2019-05-30T06:33:34.707Z,6.03
2019-05-30T06:36:06.728Z,7.47
2019-05-30T06:38:39.622Z,7.50
2019-05-30T06:41:12.115Z,5.50
2019-05-30T06:43:44.267Z,7.13
2019-05-30T06:47:11.556Z,6.87
2019-05-30T06:49:47.474Z,5.57
2019-05-30T06:52:20.885Z,6.33
2019-05-30T06:54:53.231Z,5.93
2019-05-30T06:57:25.235Z,6.60
2019-05-30T06:59:58.686Z,5.63
2019-05-30T07:02:30.557Z,5.37
2019-05-30T07:05:08.270Z,5.70
2019-05-30T07:07:52.081Z,6.50
2019-05-30T07:10:25.066Z,6.83
2019-05-30T07:13:01.881Z,5.23
2019-05-30T07:15:35.155Z,5.20
2019-05-30T07:18:11.205Z,8.13
2019-05-30T07:20:42.991Z,7.53
2019-05-30T07:23:15.170Z,3.90
2019-05-30T07:25:46.831Z,10.20
2019-05-30T07:28:18.588Z,3.67
2019-05-30T07:30:53.082Z,4.63
2019-05-30T07:33:28.038Z,4.27
2019-05-30T07:36:04.294Z,4.37
2019-05-30T07:38:35.539Z,4.50
2019-05-30T07:41:12.014Z,4.23
2019-05-30T07:43:43.361Z,4.87
2019-05-30T07:46:19.349Z,5.17
2019-05-30T07:48:52.931Z,4.07
2019-05-30T07:51:26.369Z,2.87
2019-05-30T07:53:57.772Z,4.07
2019-05-30T07:56:35.395Z,3.47
2019-05-30T07:59:06.712Z,5.27
2019-05-30T08:01:39.641Z,3.00
2019-05-30T08:04:11.088Z,2.40
2019-05-30T08:06:42.259Z,2.60
2019-05-30T08:09:19.028Z,5.37
2019-05-30T08:11:50.512Z,3.23
2019-05-30T08:14:22.401Z,4.33
2019-05-30T08:16:53.864Z,2.80
2019-05-30T08:19:27.978Z,3.57
2019-05-30T08:22:18.969Z,3.27
2019-05-30T08:25:12.548Z,5.27
2019-05-30T08:28:05.524Z,2.93
2019-05-30T08:33:55.948Z,3.97
2019-05-30T08:36:51.605Z,2.73
2019-05-30T08:39:59.933Z,3.10
2019-05-30T08:43:00.603Z,3.93
2019-05-30T08:46:05.871Z,3.10
2019-05-30T08:49:11.720Z,3.10
2019-05-30T08:52:16.427Z,4.20
2019-05-30T08:55:09.736Z,2.73
2019-05-30T08:57:42.266Z,1.93
2019-05-30T09:00:16.426Z,1.23
2019-05-30T09:02:47.729Z,2.10
2019-05-30T09:05:21.496Z,1.73
2019-05-30T09:08:35.915Z,1.67
2019-05-30T09:11:38.840Z,1.80
2019-05-30T09:14:42.873Z,2.43
2019-05-30T09:17:46.706Z,2.80
2019-05-30T09:20:49.323Z,2.53
2019-05-30T09:23:31.292Z,2.40
2019-05-30T09:26:12.830Z,1.60
2019-05-30T09:29:03.669Z,2.70
2019-05-30T09:31:52.714Z,2.33
2019-05-30T09:34:44.813Z,2.47
2019-05-30T09:37:47.941Z,3.90
2019-05-30T09:40:43.609Z,3.40
2019-05-30T09:43:44.686Z,9.13
2019-05-30T09:46:46.869Z,2.40
2019-05-30T09:50:03.806Z,3.00
2019-05-30T09:53:02.434Z,5.47
2019-05-30T09:56:04.383Z,2.07
2019-05-30T09:59:09.854Z,2.30
2019-05-30T10:02:03.746Z,1.30
2019-05-30T10:04:50.409Z,2.33
2019-05-30T10:07:36.130Z,1.73
2019-05-30T10:10:16.484Z,1.70
2019-05-30T10:12:52.784Z,8.50
2019-05-30T10:15:24.879Z,3.53
2019-05-30T10:17:56.959Z,1.07
2019-05-30T10:20:32.800Z,1.50
2019-05-30T10:23:06.848Z,0.67
2019-05-30T10:25:38.075Z,1.27
2019-05-30T10:28:15.098Z,0.63
2019-05-30T10:30:52.342Z,0.50
2019-05-30T10:33:24.609Z,1.37
2019-05-30T10:35:57.034Z,0.60
2019-05-30T10:38:34.351Z,1.60
2019-05-30T10:41:05.623Z,1.20
2019-05-30T10:43:42.656Z,0.60
2019-05-30T10:46:13.960Z,0.60
2019-05-30T10:48:47.268Z,0.70
2019-05-30T10:51:18.112Z,0.63
2019-05-30T10:53:53.909Z,0.60
2019-05-30T10:56:26.328Z,1.40
2019-05-30T10:59:03.149Z,1.73
2019-05-30T11:01:36.593Z,0.83
2019-05-30T11:04:08.029Z,2.10
2019-05-30T11:07:06.854Z,1.43
2019-05-30T11:09:28.670Z,0.80
2019-05-30T11:12:02.654Z,1.60
2019-05-30T11:14:33.894Z,0.83
2019-05-30T11:17:05.329Z,1.17
2019-05-30T11:19:38.866Z,0.97
2019-05-30T11:22:17.029Z,2.13
2019-05-30T11:24:48.282Z,1.10
2019-05-30T11:27:19.603Z,0.80
2019-05-30T11:30:02.873Z,1.10
2019-05-30T11:32:59.364Z,1.20
2019-05-30T11:36:14.170Z,2.00
2019-05-30T11:38:53.720Z,1.30
2019-05-30T11:42:01.768Z,1.60
2019-05-30T11:45:01.635Z,2.67
2019-05-30T11:48:01.677Z,0.80
2019-05-30T11:51:00.028Z,2.60
2019-05-30T11:53:53.983Z,0.90
2019-05-30T11:56:50.100Z,2.27
2019-05-30T11:59:52.144Z,1.40
2019-05-30T12:02:42.767Z,1.33
2019-05-30T12:05:38.519Z,1.83
2019-05-30T12:08:27.258Z,1.60
2019-05-30T12:11:32.606Z,1.03
2019-05-30T12:14:13.729Z,1.27
2019-05-30T12:17:10.332Z,0.80
2019-05-30T12:20:00.375Z,1.03
2019-05-30T12:23:00.182Z,1.17
2019-05-30T12:25:48.605Z,1.60
2019-05-30T12:28:52.052Z,0.70
2019-05-30T12:31:52.325Z,1.57
2019-05-30T12:34:58.305Z,0.80
2019-05-30T12:37:56.044Z,1.63
2019-05-30T12:41:10.877Z,1.80
2019-05-30T12:44:33.486Z,1.53
2019-05-30T12:47:48.932Z,2.97
2019-05-30T12:53:58.379Z,4.10
2019-05-30T13:03:04.905Z,0.83
2019-05-30T13:05:57.058Z,2.33
2019-05-30T13:08:46.609Z,1.10
2019-05-30T13:11:41.368Z,1.20
2019-05-30T13:14:41.241Z,3.50
2019-05-30T13:17:50.653Z,2.73
2019-05-30T13:20:52.687Z,2.47
2019-05-30T13:23:28.742Z,2.70
2019-05-30T13:26:00.065Z,2.43
2019-05-30T13:28:31.836Z,0.70
2019-05-30T13:31:04.474Z,3.43
2019-05-30T13:33:38.762Z,1.40
2019-05-30T13:36:12.048Z,2.03
2019-05-30T13:38:46.148Z,1.80
2019-05-30T13:41:21.296Z,0.83
2019-05-30T13:43:55.337Z,0.97
2019-05-30T13:46:30.189Z,2.13
2019-05-30T13:49:02.649Z,0.90
2019-05-30T13:51:35.860Z,1.47
2019-05-30T13:54:09.263Z,1.17
2019-05-30T13:56:41.549Z,1.33
2019-05-30T13:59:14.082Z,2.73
2019-05-30T14:01:45.461Z,1.03
2019-05-30T14:04:20.100Z,1.37
2019-05-30T14:06:53.485Z,1.43
2019-05-30T14:09:25.603Z,1.70
2019-05-30T14:11:57.609Z,0.60
2019-05-30T14:14:30.184Z,4.40
2019-05-30T14:17:01.367Z,1.83
2019-05-30T14:19:32.588Z,3.77
2019-05-30T14:22:07.254Z,1.23
2019-05-30T14:24:41.224Z,2.40
2019-05-30T14:27:13.989Z,0.60
2019-05-30T14:29:46.614Z,0.60
2019-05-30T14:32:19.950Z,4.00
2019-05-30T14:34:58.017Z,0.63
2019-05-30T14:37:30.156Z,1.60
2019-05-30T14:40:11.020Z,3.27
2019-05-30T14:42:43.560Z,1.27
2019-05-30T14:45:19.514Z,2.07
2019-05-30T14:47:50.931Z,0.80
2019-05-30T14:50:23.679Z,2.63
2019-05-30T14:52:57.963Z,0.70
2019-05-30T14:55:29.208Z,0.50
2019-05-30T14:58:02.704Z,1.20
2019-05-30T15:00:33.920Z,3.10
2019-05-30T15:03:09.152Z,0.80
2019-05-30T15:05:42.703Z,1.30
2019-05-30T15:08:18.091Z,1.37
2019-05-30T15:10:49.304Z,0.83
2019-05-30T15:13:22.075Z,0.70
2019-05-30T15:15:57.303Z,0.70
2019-05-30T15:18:31.481Z,0.70
2019-05-30T15:21:06.959Z,2.60
2019-05-30T15:23:38.150Z,1.70
2019-05-30T15:26:14.211Z,1.07
2019-05-30T15:28:46.555Z,1.67
2019-05-30T15:31:19.190Z,1.70
2019-05-30T15:33:53.009Z,0.63
2019-05-30T15:36:29.193Z,0.43
2019-05-30T15:38:59.593Z,2.20
2019-05-30T15:41:36.080Z,2.67
2019-05-30T15:44:07.535Z,3.43
2019-05-30T15:46:41.962Z,2.80
2019-05-30T15:49:16.470Z,1.33
2019-05-30T15:51:49.668Z,1.30
2019-05-30T15:54:22.305Z,1.90
2019-05-30T15:56:56.084Z,4.27
2019-05-30T15:59:32.106Z,1.77
2019-05-30T16:02:04.093Z,5.67
2019-05-30T16:04:36.291Z,2.33
2019-05-30T16:07:08.040Z,0.83
2019-05-30T16:09:46.998Z,2.50
2019-05-30T16:12:15.075Z,15.33
2019-05-30T16:14:49.033Z,2.10
2019-05-30T16:17:25.677Z,3.97
2019-05-30T16:20:02.319Z,1.33
2019-05-30T16:22:36.946Z,1.10
2019-05-30T16:25:15.550Z,1.13
2019-05-30T16:27:51.623Z,1.30
2019-05-30T16:30:26.992Z,4.50
2019-05-30T16:33:00.715Z,1.13
2019-05-30T16:35:34.921Z,2.93
2019-05-30T16:38:10.203Z,3.93
2019-05-30T16:40:45.176Z,2.77
2019-05-30T16:43:20.305Z,2.03
2019-05-30T16:45:54.447Z,4.03
2019-05-30T16:48:26.748Z,2.73
2019-05-30T16:51:12.935Z,4.33
2019-05-30T16:53:56.512Z,2.73
2019-05-30T16:56:42.121Z,5.63
2019-05-30T16:59:45.879Z,2.47
2019-05-30T17:02:29.798Z,8.50
2019-05-30T17:08:46.000Z,8.63
2019-05-30T17:11:36.009Z,3.67
2019-05-30T17:14:49.174Z,7.90
2019-05-30T17:17:49.950Z,4.57
2019-05-30T17:20:59.329Z,3.20
2019-05-30T17:23:41.186Z,6.67
2019-05-30T17:26:27.471Z,1.83
2019-05-30T17:29:19.509Z,1.53
2019-05-30T17:32:23.860Z,1.40
2019-05-30T17:35:30.765Z,0.93
2019-05-30T17:38:36.398Z,1.23
2019-05-30T17:44:34.419Z,3.83
2019-05-30T17:47:29.512Z,3.13
2019-05-30T17:50:29.992Z,1.67
2019-05-30T17:53:35.880Z,2.60
2019-05-30T17:56:26.130Z,1.07
2019-05-30T17:59:08.584Z,1.77
2019-05-30T18:02:31.175Z,2.40
2019-05-30T18:05:22.612Z,2.47
2019-05-30T18:08:36.012Z,1.63
2019-05-30T18:11:11.872Z,3.27
2019-05-30T18:13:47.488Z,2.63
2019-05-30T18:16:20.984Z,3.03
2019-05-30T18:18:55.280Z,1.40
2019-05-30T18:21:27.485Z,3.50
2019-05-30T18:24:03.811Z,1.33
2019-05-30T18:26:35.341Z,2.70
2019-05-30T18:29:06.598Z,2.03
2019-05-30T18:31:38.403Z,2.77
2019-05-30T18:34:09.662Z,3.20
2019-05-30T18:36:41.437Z,4.47
2019-05-30T18:39:17.116Z,2.30
2019-05-30T18:41:48.485Z,1.37
2019-05-30T18:44:20.971Z,2.67
2019-05-30T18:46:57.562Z,6.50
2019-05-30T18:49:29.383Z,2.40
2019-05-30T18:52:00.704Z,3.33
2019-05-30T18:54:32.936Z,3.83
2019-05-30T18:57:05.347Z,2.00
2019-05-30T18:59:37.494Z,1.20
2019-05-30T19:02:13.152Z,2.20
2019-05-30T19:04:44.662Z,2.27
2019-05-30T19:07:19.277Z,1.53
2019-05-30T19:09:52.927Z,1.33
2019-05-30T19:12:30.102Z,1.70
2019-05-30T19:18:15.212Z,3.67
2019-05-30T19:20:47.993Z,5.67
2019-05-30T19:23:22.254Z,5.40
2019-05-30T19:25:57.082Z,2.17
2019-05-30T19:28:30.383Z,2.03
2019-05-30T19:31:06.335Z,2.37
2019-05-30T19:33:38.703Z,1.07
2019-05-30T19:36:12.180Z,1.77
2019-05-30T19:38:45.085Z,1.83
2019-05-30T19:41:17.946Z,3.83
2019-05-30T19:43:50.363Z,2.90
2019-05-30T19:46:21.684Z,3.13
2019-05-30T19:48:55.149Z,2.13
2019-05-30T19:51:26.715Z,1.50
2019-05-30T19:53:57.941Z,2.00
2019-05-30T19:56:29.315Z,3.13
2019-05-30T19:59:01.338Z,1.40
2019-05-30T20:01:33.770Z,4.50
2019-05-30T20:04:05.770Z,2.93
2019-05-30T20:06:37.210Z,1.53
2019-05-30T20:09:11.025Z,1.47
2019-05-30T20:11:42.782Z,3.70
2019-05-30T20:14:14.206Z,3.50
2019-05-30T20:16:45.727Z,3.33
2019-05-30T20:19:17.161Z,2.77
2019-05-30T20:21:48.676Z,1.70
2019-05-30T20:24:20.253Z,2.07
2019-05-30T20:26:52.871Z,0.93
2019-05-30T20:29:24.394Z,2.00
2019-05-30T20:31:55.904Z,1.77
2019-05-30T20:34:28.729Z,1.40
2019-05-30T20:37:00.138Z,1.67
2019-05-30T20:39:32.513Z,3.07
2019-05-30T20:42:18.238Z,3.30
2019-05-30T20:44:38.859Z,2.60
2019-05-30T20:47:11.737Z,2.20
2019-05-30T20:49:43.395Z,3.03
2019-05-30T20:52:16.223Z,3.47
2019-05-30T20:54:47.675Z,2.00
2019-05-30T20:57:19.049Z,2.93
2019-05-30T20:59:50.628Z,1.80
2019-05-30T21:02:22.205Z,2.70
2019-05-30T21:04:53.525Z,2.20
2019-05-30T21:07:25.900Z,1.87
2019-05-30T21:09:58.594Z,1.50
2019-05-30T21:12:37.693Z,1.77
2019-05-30T21:15:09.010Z,1.33
2019-05-30T21:17:42.320Z,1.10
2019-05-30T21:20:15.380Z,2.53
2019-05-30T21:22:48.392Z,1.70
2019-05-30T21:25:20.486Z,2.40
2019-05-30T21:27:52.237Z,2.13
2019-05-30T21:30:23.560Z,2.70
2019-05-30T21:32:55.220Z,1.60
2019-05-30T21:35:26.808Z,2.37
2019-05-30T21:37:58.552Z,1.50
2019-05-30T21:40:30.001Z,2.60
2019-05-30T21:43:06.751Z,2.60
2019-05-30T21:45:35.589Z,2.20
2019-05-30T21:48:07.052Z,1.30
2019-05-30T21:50:39.277Z,3.20
2019-05-30T21:53:11.610Z,2.00
2019-05-30T21:55:43.949Z,3.93
2019-05-30T21:58:15.476Z,1.00
2019-05-30T22:00:51.314Z,4.10
2019-05-30T22:03:24.825Z,1.70
2019-05-30T22:05:57.573Z,1.83
2019-05-30T22:08:29.073Z,1.97
2019-05-30T22:11:00.510Z,1.43
2019-05-30T22:13:32.996Z,2.13
2019-05-30T22:16:04.310Z,3.47
2019-05-30T22:18:35.803Z,1.10
2019-05-30T22:21:07.865Z,2.73
2019-05-30T22:23:39.335Z,2.20
2019-05-30T22:26:11.935Z,1.20
2019-05-30T22:28:44.361Z,1.10
2019-05-30T22:31:15.930Z,4.00
2019-05-30T22:33:47.285Z,1.63
2019-05-30T22:36:20.214Z,1.73
2019-05-30T22:38:56.906Z,1.30
2019-05-30T22:41:28.526Z,1.10
2019-05-30T22:44:00.315Z,1.93
2019-05-30T22:46:32.088Z,3.30
2019-05-30T22:49:19.145Z,1.57
2019-05-30T22:51:51.131Z,2.63
2019-05-30T22:54:23.616Z,2.10
2019-05-30T22:57:14.120Z,2.13
2019-05-30T22:59:49.065Z,1.87
2019-05-30T23:02:20.362Z,1.60
2019-05-30T23:04:52.236Z,1.23
2019-05-30T23:07:24.070Z,1.23
2019-05-30T23:09:56.859Z,1.90
2019-05-30T23:12:30.046Z,1.10
2019-05-30T23:15:02.543Z,2.17
2019-05-30T23:17:35.534Z,1.50
2019-05-30T23:20:09.827Z,3.27
2019-05-30T23:22:41.857Z,4.67
2019-05-30T23:25:14.584Z,1.70
2019-05-30T23:27:47.358Z,3.10
2019-05-30T23:30:19.814Z,0.97
2019-05-30T23:32:52.120Z,1.60
2019-05-30T23:35:23.983Z,1.27
2019-05-30T23:37:57.211Z,1.53
2019-05-30T23:40:28.813Z,2.13
2019-05-30T23:43:00.362Z,1.10
2019-05-30T23:45:33.475Z,1.30
2019-05-30T23:48:06.398Z,1.93
2019-05-30T23:50:39.320Z,1.73
2019-05-30T23:53:12.130Z,1.47
2019-05-30T23:55:43.401Z,1.67
2019-05-30T23:58:15.011Z,1.10
